Spar Hydra — LAKL7 — position and weather

sailwx.info

Track history (hours):
 
Tides and Currents Weather Stations Pressure Air Temp Water Temp Dewpoint Dewpoint Depression Visibility Wind Speed Wind Dir Waves Ship Positions

Spar Hydra

Last reported at 2017-May-20 20:00 UTC. Time now 2017-May-30 07:27 UTC.
Position N 33°23' W 011°29'.
Warning: this ship's position is 9 days out of date.

Length 190 m; draft 10.2 m.

Type: Cargo ship. MMSI: 259701000.

Date/timePositionNaut miles runAvg speedWind from/ knotsBaromVisibWave heightAir tempDewpointWater temp
2017-May-20 20:00N 33°23' W 011°29'713.5
2017-May-20 19:30N 33°27' W 011°22'713.3
2017-May-20 19:00N 33°31' W 011°15'713.3
2017-May-20 18:29N 33°34' W 011°08'613.3
2017-May-20 18:00N 33°37' W 011°01'713.0
2017-May-20 17:29N 33°41' W 010°55'613.2
2017-May-20 17:00N 33°44' W 010°48'1813.3
2017-May-20 15:38N 33°53' W 010°29'4313.2
2017-May-20 12:24N 34°15' W 009°45'513.2
2017-May-20 12:00N 34°18' W 009°39'713.2
2017-May-20 11:30N 34°21' W 009°33'713.2
2017-May-20 10:58N 34°25' W 009°25'613.2
2017-May-20 10:30N 34°28' W 009°19'713.1
2017-May-20 10:00N 34°32' W 009°12'2113.1
2017-May-20 08:26N 34°42' W 008°51'612.9
2017-May-20 07:56N 34°45' W 008°44'613.2
2017-May-20 07:30N 34°48' W 008°38'1013.2
2017-May-20 06:45N 34°54' W 008°28'313.5
2017-May-20 06:30N 34°55' W 008°24'15013.3
2017-May-19 19:09N 35°58' W 005°36'213.4
2017-May-19 19:00N 35°59' W 005°34'713.2
2017-May-19 18:30N 36°01' W 005°26'5 9.9
2017-May-19 18:00N 36°05' W 005°22'3 5.0
2017-May-19 17:24N 36°08' W 005°22'0 0.2
2017-May-19 16:57N 36°08' W 005°22'0 0.0
2017-May-19 16:30N 36°08' W 005°22'0 0.1
2017-May-19 16:00N 36°08' W 005°22'0 0.0
2017-May-19 15:21N 36°08' W 005°22'0 0.1
2017-May-19 15:00N 36°07' W 005°22'0 0.0
2017-May-19 13:54N 36°07' W 005°22'0 0.1
2017-May-19 13:27N 36°07' W 005°22'0 0.1
2017-May-19 12:45N 36°07' W 005°22'0 0.1
2017-May-19 12:30N 36°07' W 005°22'0 0.1
2017-May-19 12:00N 36°07' W 005°22'0 0.1
2017-May-19 11:30N 36°07' W 005°22'0 0.1
2017-May-19 10:54N 36°07' W 005°22'0 0.0
2017-May-19 09:45N 36°07' W 005°22'0 0.0
2017-May-19 09:24N 36°07' W 005°22'0 0.0
2017-May-19 08:54N 36°07' W 005°22'0 0.0
2017-May-19 08:27N 36°07' W 005°22'0 0.1
2017-May-19 08:00N 36°07' W 005°22'2 3.6
2017-May-19 07:30N 36°06' W 005°22'3 5.7
2017-May-19 07:01N 36°06' W 005°18'611.3
2017-May-19 06:31N 36°07' W 005°11'612.7
2017-May-19 06:01N 36°07' W 005°04'612.2
2017-May-19 05:30N 36°08' W 004°56'18811.9
2017-May-18 13:42N 37°06' W 001°13'2113.1
2017-May-18 12:05N 37°20' W 000°53'112.9
2017-May-18 12:00N 37°21' W 000°52'712.9
2017-May-18 11:28N 37°26' W 000°46'613.0
2017-May-18 11:00N 37°30' W 000°40'613.0
2017-May-18 10:30N 37°34' W 000°34'712.9
2017-May-18 10:00N 37°39' W 000°30'612.8
2017-May-18 09:30N 37°45' W 000°27'612.6
2017-May-18 09:00N 37°52' W 000°25'612.7
2017-May-18 08:30N 37°58' W 000°24'612.9
2017-May-18 08:00N 38°04' W 000°23'713.2
2017-May-18 07:29N 38°11' W 000°23'  
2017-May-16 01:14N 38°20' W 000°30'12 0.8
2017-May-15 10:03N 38°21' W 000°15'212.5
2017-May-15 09:54N 38°21' W 000°12'1313.3
2017-May-15 08:56N 38°23' E 000°04'5713.4
2017-May-15 04:42N 39°05' E 000°52'413.3
2017-May-15 04:25N 39°08' E 000°55'513.1
2017-May-15 04:00N 39°12' E 001°00'713.0
2017-May-15 03:30N 39°16' E 001°07'1113.1
2017-May-15 02:39N 39°24' E 001°17'1212.9
2017-May-15 01:44N 39°32' E 001°28'412.8
2017-May-15 01:27N 39°35' E 001°32'812.8
2017-May-15 00:51N 39°40' E 001°39'412.6
2017-May-15 00:30N 39°43' E 001°42'612.7
2017-May-15 00:00N 39°48' E 001°48'612.6
2017-May-14 23:30N 39°52' E 001°54'612.7
2017-May-14 23:00N 39°56' E 002°00'612.6
2017-May-14 22:31N 40°00' E 002°06'612.5
2017-May-14 22:00N 40°04' E 002°13'612.8
2017-May-14 21:30N 40°07' E 002°20'613.0
2017-May-14 21:00N 40°11' E 002°27'612.9
2017-May-14 20:30N 40°15' E 002°34'613.0
2017-May-14 20:00N 40°18' E 002°42'612.9
2017-May-14 19:31N 40°21' E 002°49'713.2
2017-May-14 19:00N 40°25' E 002°56'713.3
2017-May-14 18:30N 40°28' E 003°04'713.2
2017-May-14 18:01N 40°32' E 003°11'713.0
2017-May-14 17:30N 40°35' E 003°18'612.7
2017-May-14 17:00N 40°38' E 003°25'712.9
2017-May-14 16:29N 40°42' E 003°33'12813.0
2017-May-14 06:41N 41°50' E 005°57'15312.5
2017-May-13 18:27N 43°11' E 008°52'612.4
2017-May-13 18:00N 43°14' E 008°58'612.4
2017-May-13 17:30N 43°17' E 009°06'612.4
2017-May-13 17:00N 43°18' E 009°14'612.3
2017-May-13 16:31N 43°18' E 009°22'612.7
2017-May-13 16:00N 43°18' E 009°31'612.6
2017-May-13 15:31N 43°18' E 009°40'612.8
2017-May-13 15:00N 43°18' E 009°48'612.7
2017-May-13 14:30N 43°18' E 009°57'1313.2
2017-May-13 13:30N 43°28' E 010°09'4 8.9
2017-May-13 13:00N 43°31' E 010°14'3 6.3
2017-May-13 12:30N 43°33' E 010°17'0 0.6
2017-May-13 11:56N 43°33' E 010°18'0 0.0
2017-May-13 11:29N 43°33' E 010°18'0 0.0
2017-May-13 10:59N 43°33' E 010°18'0 0.0
2017-May-13 10:29N 43°33' E 010°18'0 0.0
2017-May-13 09:59N 43°33' E 010°18'0 0.0
2017-May-13 09:29N 43°33' E 010°18'0 0.0
2017-May-13 08:53N 43°33' E 010°18'0 0.0
2017-May-13 08:29N 43°33' E 010°18'0 0.0
2017-May-13 07:59N 43°33' E 010°18'0 0.0
2017-May-13 07:29N 43°33' E 010°18'0 0.0
2017-May-13 06:56N 43°33' E 010°18'0 0.0
2017-May-13 06:29N 43°33' E 010°18'0 0.0
2017-May-13 05:56N 43°33' E 010°18'0 0.0
2017-May-13 05:26N 43°33' E 010°18'0 0.0
2017-May-13 04:59N 43°33' E 010°18'0 0.0
2017-May-13 04:29N 43°33' E 010°18'0 0.0
2017-May-13 03:59N 43°33' E 010°18'0 0.0
2017-May-13 03:29N 43°33' E 010°18'0 0.0
2017-May-13 02:59N 43°33' E 010°18'0 0.0
2017-May-13 02:29N 43°33' E 010°18'0 0.0
2017-May-13 01:59N 43°33' E 010°18'0 0.0
2017-May-13 01:26N 43°33' E 010°18'0 0.0
2017-May-13 00:59N 43°33' E 010°18'0 0.0
2017-May-13 00:29N 43°33' E 010°18'0 0.0
2017-May-12 23:56N 43°33' E 010°18'0 0.0
2017-May-12 23:29N 43°33' E 010°18'0 0.0
2017-May-12 22:59N 43°33' E 010°18'0 0.0
2017-May-12 22:29N 43°33' E 010°18'0 0.0
2017-May-12 21:53N 43°33' E 010°18'0 0.0
2017-May-12 21:29N 43°33' E 010°18'0 0.0
2017-May-12 20:59N 43°33' E 010°18'0 0.0
2017-May-12 20:29N 43°33' E 010°18'0 0.0
2017-May-12 19:59N 43°33' E 010°18'0 0.0
2017-May-12 19:29N 43°33' E 010°18'0 0.0
2017-May-12 18:59N 43°33' E 010°18'0 0.0
2017-May-12 18:29N 43°33' E 010°18'0 0.0
2017-May-12 17:59N 43°33' E 010°18'0 0.0
2017-May-12 17:29N 43°33' E 010°18'0 0.0
2017-May-12 16:59N 43°33' E 010°18'0 0.0
2017-May-12 16:29N 43°33' E 010°18'0 0.0
2017-May-12 15:56N 43°33' E 010°18'0 0.0
2017-May-12 15:26N 43°33' E 010°18'0 0.0
2017-May-12 14:59N 43°33' E 010°18'0 0.0
2017-May-12 13:59N 43°33' E 010°18'0 0.0
2017-May-12 13:29N 43°33' E 010°18'0 0.0
2017-May-12 12:59N 43°33' E 010°18'0 0.0
2017-May-12 12:29N 43°33' E 010°18'0 0.0
2017-May-12 11:59N 43°33' E 010°18'0 0.0
2017-May-12 11:26N 43°33' E 010°18'0 0.0
2017-May-12 10:56N 43°33' E 010°18'0 0.0
2017-May-12 10:26N 43°33' E 010°18'0 0.0
2017-May-12 09:59N 43°33' E 010°18'0 0.0
2017-May-12 09:26N 43°33' E 010°18'0 0.0
2017-May-12 08:59N 43°33' E 010°18'0 0.0
2017-May-12 08:29N 43°33' E 010°18'0 0.0
2017-May-12 07:59N 43°33' E 010°18'0 0.0
2017-May-12 07:29N 43°33' E 010°18'0 0.0
2017-May-12 06:59N 43°33' E 010°18'0 0.0
2017-May-12 06:29N 43°33' E 010°18'0 0.0
2017-May-12 05:56N 43°33' E 010°18'0 0.0
2017-May-12 05:23N 43°33' E 010°18'0 0.0
2017-May-12 04:59N 43°33' E 010°18'0 0.0
2017-May-12 04:26N 43°33' E 010°18'0 0.0
2017-May-12 03:59N 43°33' E 010°18'0 0.0
2017-May-12 03:29N 43°33' E 010°18'0 0.0
2017-May-12 02:56N 43°33' E 010°18'0 0.0
2017-May-12 02:29N 43°33' E 010°18'0 0.0
2017-May-12 01:59N 43°33' E 010°18'0 0.1
2017-May-12 01:29N 43°33' E 010°18'0 0.1
2017-May-12 00:59N 43°33' E 010°18'0 0.0
2017-May-12 00:29N 43°33' E 010°18'0 0.0
2017-May-11 23:59N 43°33' E 010°18'0 0.0
2017-May-11 23:29N 43°33' E 010°18'0 0.0
2017-May-11 22:59N 43°33' E 010°18'0 0.0
2017-May-11 22:26N 43°33' E 010°18'0 0.0
2017-May-11 21:59N 43°33' E 010°18'0 0.0
2017-May-11 21:29N 43°33' E 010°18'0 0.0
2017-May-11 20:59N 43°33' E 010°18'0 0.0
2017-May-11 20:29N 43°33' E 010°18'0 0.0
2017-May-11 19:59N 43°33' E 010°18'0 0.0
2017-May-11 19:29N 43°33' E 010°18'0 0.0
2017-May-11 18:59N 43°33' E 010°18'0 0.0
2017-May-11 18:29N 43°33' E 010°18'0 0.0
2017-May-11 17:59N 43°33' E 010°18'0 0.0
2017-May-11 17:29N 43°33' E 010°18'0 0.0
2017-May-11 16:59N 43°33' E 010°18'0 0.0
2017-May-11 16:29N 43°33' E 010°18'0 0.0
2017-May-11 15:53N 43°33' E 010°18'0 0.0
2017-May-11 15:29N 43°33' E 010°18'0 0.0
2017-May-11 14:59N 43°33' E 010°18'0 0.0
2017-May-11 14:29N 43°33' E 010°18'0 0.0
2017-May-11 13:26N 43°33' E 010°18'0 0.0
2017-May-11 12:56N 43°33' E 010°18'0 0.0
2017-May-11 12:29N 43°33' E 010°18'0 0.0
2017-May-11 11:56N 43°33' E 010°18'0 0.0
2017-May-11 11:29N 43°33' E 010°18'0 0.0
2017-May-11 10:56N 43°33' E 010°18'0 0.0
2017-May-11 10:29N 43°33' E 010°18'0 0.0
2017-May-11 09:59N 43°33' E 010°18'0 0.0
2017-May-11 09:26N 43°33' E 010°18'0 0.0
2017-May-11 08:59N 43°33' E 010°18'0 0.0
2017-May-11 08:29N 43°33' E 010°18'0 0.0
2017-May-11 07:47N 43°33' E 010°18'0 0.0
2017-May-11 07:29N 43°33' E 010°18'0 0.0
2017-May-11 06:59N 43°33' E 010°18'0 0.0
2017-May-11 06:29N 43°33' E 010°18'0 0.0
2017-May-11 05:59N 43°33' E 010°18'0 0.0
2017-May-11 05:29N 43°33' E 010°18'0 0.0
2017-May-11 04:59N 43°33' E 010°18'0 0.0
2017-May-11 04:29N 43°33' E 010°18'0 0.0
2017-May-11 03:50N 43°33' E 010°18'0 0.0
2017-May-11 03:29N 43°33' E 010°18'0 0.0
2017-May-11 02:59N 43°33' E 010°18'0 0.0
2017-May-11 02:29N 43°33' E 010°18'0 0.0
2017-May-11 01:59N 43°33' E 010°18'0 0.0
2017-May-11 01:26N 43°33' E 010°18'0 0.0
2017-May-11 00:59N 43°33' E 010°18'0 0.0
2017-May-11 00:29N 43°33' E 010°18'0 0.0
2017-May-10 23:59N 43°33' E 010°18'0 0.0
2017-May-10 23:29N 43°33' E 010°18'0 0.0
2017-May-10 22:59N 43°33' E 010°18'0 0.0
2017-May-10 22:29N 43°33' E 010°18'0 0.0
2017-May-10 21:59N 43°33' E 010°18'0 0.0
2017-May-10 21:29N 43°33' E 010°18'0 0.0
2017-May-10 20:59N 43°33' E 010°18'0 0.0
2017-May-10 20:29N 43°33' E 010°18'  
Track history (hours):
 
Tides and Currents Weather Stations Pressure Air Temp Water Temp Dewpoint Dewpoint Depression Visibility Wind Speed Wind Dir Waves Ship Positions

Spar Hydra

Last reported at 2017-May-20 20:00 UTC. Time now 2017-May-30 07:27 UTC.
Position N 33°23' W 011°29'.
Warning: this ship's position is 9 days out of date.

Length 190 m; draft 10.2 m.

Type: Cargo ship. MMSI: 259701000.

Date/timePositionNaut miles runAvg speedWind from/ knotsBaromVisibWave heightAir tempDewpointWater temp
2017-May-20 20:00N 33°23' W 011°29'713.5
2017-May-20 19:30N 33°27' W 011°22'713.3
2017-May-20 19:00N 33°31' W 011°15'713.3
2017-May-20 18:29N 33°34' W 011°08'613.3
2017-May-20 18:00N 33°37' W 011°01'713.0
2017-May-20 17:29N 33°41' W 010°55'613.2
2017-May-20 17:00N 33°44' W 010°48'1813.3
2017-May-20 15:38N 33°53' W 010°29'4313.2
2017-May-20 12:24N 34°15' W 009°45'513.2
2017-May-20 12:00N 34°18' W 009°39'713.2
2017-May-20 11:30N 34°21' W 009°33'713.2
2017-May-20 10:58N 34°25' W 009°25'613.2
2017-May-20 10:30N 34°28' W 009°19'713.1
2017-May-20 10:00N 34°32' W 009°12'2113.1
2017-May-20 08:26N 34°42' W 008°51'612.9
2017-May-20 07:56N 34°45' W 008°44'613.2
2017-May-20 07:30N 34°48' W 008°38'1013.2
2017-May-20 06:45N 34°54' W 008°28'313.5
2017-May-20 06:30N 34°55' W 008°24'15013.3
2017-May-19 19:09N 35°58' W 005°36'213.4
2017-May-19 19:00N 35°59' W 005°34'713.2
2017-May-19 18:30N 36°01' W 005°26'5 9.9
2017-May-19 18:00N 36°05' W 005°22'3 5.0
2017-May-19 17:24N 36°08' W 005°22'0 0.2
2017-May-19 16:57N 36°08' W 005°22'0 0.0
2017-May-19 16:30N 36°08' W 005°22'0 0.1
2017-May-19 16:00N 36°08' W 005°22'0 0.0
2017-May-19 15:21N 36°08' W 005°22'0 0.1
2017-May-19 15:00N 36°07' W 005°22'0 0.0
2017-May-19 13:54N 36°07' W 005°22'0 0.1
2017-May-19 13:27N 36°07' W 005°22'0 0.1
2017-May-19 12:45N 36°07' W 005°22'0 0.1
2017-May-19 12:30N 36°07' W 005°22'0 0.1
2017-May-19 12:00N 36°07' W 005°22'0 0.1
2017-May-19 11:30N 36°07' W 005°22'0 0.1
2017-May-19 10:54N 36°07' W 005°22'0 0.0
2017-May-19 09:45N 36°07' W 005°22'0 0.0
2017-May-19 09:24N 36°07' W 005°22'0 0.0
2017-May-19 08:54N 36°07' W 005°22'0 0.0
2017-May-19 08:27N 36°07' W 005°22'0 0.1
2017-May-19 08:00N 36°07' W 005°22'2 3.6
2017-May-19 07:30N 36°06' W 005°22'3 5.7
2017-May-19 07:01N 36°06' W 005°18'611.3
2017-May-19 06:31N 36°07' W 005°11'612.7
2017-May-19 06:01N 36°07' W 005°04'612.2
2017-May-19 05:30N 36°08' W 004°56'18811.9
2017-May-18 13:42N 37°06' W 001°13'2113.1
2017-May-18 12:05N 37°20' W 000°53'112.9
2017-May-18 12:00N 37°21' W 000°52'712.9
2017-May-18 11:28N 37°26' W 000°46'613.0
2017-May-18 11:00N 37°30' W 000°40'613.0
2017-May-18 10:30N 37°34' W 000°34'712.9
2017-May-18 10:00N 37°39' W 000°30'612.8
2017-May-18 09:30N 37°45' W 000°27'612.6
2017-May-18 09:00N 37°52' W 000°25'612.7
2017-May-18 08:30N 37°58' W 000°24'612.9
2017-May-18 08:00N 38°04' W 000°23'713.2
2017-May-18 07:29N 38°11' W 000°23'  
2017-May-16 01:14N 38°20' W 000°30'12 0.8
2017-May-15 10:03N 38°21' W 000°15'212.5
2017-May-15 09:54N 38°21' W 000°12'1313.3
2017-May-15 08:56N 38°23' E 000°04'5713.4
2017-May-15 04:42N 39°05' E 000°52'413.3
2017-May-15 04:25N 39°08' E 000°55'513.1
2017-May-15 04:00N 39°12' E 001°00'713.0
2017-May-15 03:30N 39°16' E 001°07'1113.1
2017-May-15 02:39N 39°24' E 001°17'1212.9
2017-May-15 01:44N 39°32' E 001°28'412.8
2017-May-15 01:27N 39°35' E 001°32'812.8
2017-May-15 00:51N 39°40' E 001°39'412.6
2017-May-15 00:30N 39°43' E 001°42'612.7
2017-May-15 00:00N 39°48' E 001°48'612.6
2017-May-14 23:30N 39°52' E 001°54'612.7
2017-May-14 23:00N 39°56' E 002°00'612.6
2017-May-14 22:31N 40°00' E 002°06'612.5
2017-May-14 22:00N 40°04' E 002°13'612.8
2017-May-14 21:30N 40°07' E 002°20'613.0
2017-May-14 21:00N 40°11' E 002°27'612.9
2017-May-14 20:30N 40°15' E 002°34'613.0
2017-May-14 20:00N 40°18' E 002°42'612.9
2017-May-14 19:31N 40°21' E 002°49'713.2
2017-May-14 19:00N 40°25' E 002°56'713.3
2017-May-14 18:30N 40°28' E 003°04'713.2
2017-May-14 18:01N 40°32' E 003°11'713.0
2017-May-14 17:30N 40°35' E 003°18'612.7
2017-May-14 17:00N 40°38' E 003°25'712.9
2017-May-14 16:29N 40°42' E 003°33'12813.0
2017-May-14 06:41N 41°50' E 005°57'15312.5
2017-May-13 18:27N 43°11' E 008°52'612.4
2017-May-13 18:00N 43°14' E 008°58'612.4
2017-May-13 17:30N 43°17' E 009°06'612.4
2017-May-13 17:00N 43°18' E 009°14'612.3
2017-May-13 16:31N 43°18' E 009°22'612.7
2017-May-13 16:00N 43°18' E 009°31'612.6
2017-May-13 15:31N 43°18' E 009°40'612.8
2017-May-13 15:00N 43°18' E 009°48'612.7
2017-May-13 14:30N 43°18' E 009°57'1313.2
2017-May-13 13:30N 43°28' E 010°09'4 8.9
2017-May-13 13:00N 43°31' E 010°14'3 6.3
2017-May-13 12:30N 43°33' E 010°17'0 0.6
2017-May-13 11:56N 43°33' E 010°18'0 0.0
2017-May-13 11:29N 43°33' E 010°18'0 0.0
2017-May-13 10:59N 43°33' E 010°18'0 0.0
2017-May-13 10:29N 43°33' E 010°18'0 0.0
2017-May-13 09:59N 43°33' E 010°18'0 0.0
2017-May-13 09:29N 43°33' E 010°18'0 0.0
2017-May-13 08:53N 43°33' E 010°18'0 0.0
2017-May-13 08:29N 43°33' E 010°18'0 0.0
2017-May-13 07:59N 43°33' E 010°18'0 0.0
2017-May-13 07:29N 43°33' E 010°18'0 0.0
2017-May-13 06:56N 43°33' E 010°18'0 0.0
2017-May-13 06:29N 43°33' E 010°18'0 0.0
2017-May-13 05:56N 43°33' E 010°18'0 0.0
2017-May-13 05:26N 43°33' E 010°18'0 0.0
2017-May-13 04:59N 43°33' E 010°18'0 0.0
2017-May-13 04:29N 43°33' E 010°18'0 0.0
2017-May-13 03:59N 43°33' E 010°18'0 0.0
2017-May-13 03:29N 43°33' E 010°18'0 0.0
2017-May-13 02:59N 43°33' E 010°18'0 0.0
2017-May-13 02:29N 43°33' E 010°18'0 0.0
2017-May-13 01:59N 43°33' E 010°18'0 0.0
2017-May-13 01:26N 43°33' E 010°18'0 0.0
2017-May-13 00:59N 43°33' E 010°18'0 0.0
2017-May-13 00:29N 43°33' E 010°18'0 0.0
2017-May-12 23:56N 43°33' E 010°18'0 0.0
2017-May-12 23:29N 43°33' E 010°18'0 0.0
2017-May-12 22:59N 43°33' E 010°18'0 0.0
2017-May-12 22:29N 43°33' E 010°18'0 0.0
2017-May-12 21:53N 43°33' E 010°18'0 0.0
2017-May-12 21:29N 43°33' E 010°18'0 0.0
2017-May-12 20:59N 43°33' E 010°18'0 0.0
2017-May-12 20:29N 43°33' E 010°18'0 0.0
2017-May-12 19:59N 43°33' E 010°18'0 0.0
2017-May-12 19:29N 43°33' E 010°18'0 0.0
2017-May-12 18:59N 43°33' E 010°18'0 0.0
2017-May-12 18:29N 43°33' E 010°18'0 0.0
2017-May-12 17:59N 43°33' E 010°18'0 0.0
2017-May-12 17:29N 43°33' E 010°18'0 0.0
2017-May-12 16:59N 43°33' E 010°18'0 0.0
2017-May-12 16:29N 43°33' E 010°18'0 0.0
2017-May-12 15:56N 43°33' E 010°18'0 0.0
2017-May-12 15:26N 43°33' E 010°18'0 0.0
2017-May-12 14:59N 43°33' E 010°18'0 0.0
2017-May-12 13:59N 43°33' E 010°18'0 0.0
2017-May-12 13:29N 43°33' E 010°18'0 0.0
2017-May-12 12:59N 43°33' E 010°18'0 0.0
2017-May-12 12:29N 43°33' E 010°18'0 0.0
2017-May-12 11:59N 43°33' E 010°18'0 0.0
2017-May-12 11:26N 43°33' E 010°18'0 0.0
2017-May-12 10:56N 43°33' E 010°18'0 0.0
2017-May-12 10:26N 43°33' E 010°18'0 0.0
2017-May-12 09:59N 43°33' E 010°18'0 0.0
2017-May-12 09:26N 43°33' E 010°18'0 0.0
2017-May-12 08:59N 43°33' E 010°18'0 0.0
2017-May-12 08:29N 43°33' E 010°18'0 0.0
2017-May-12 07:59N 43°33' E 010°18'0 0.0
2017-May-12 07:29N 43°33' E 010°18'0 0.0
2017-May-12 06:59N 43°33' E 010°18'0 0.0
2017-May-12 06:29N 43°33' E 010°18'0 0.0
2017-May-12 05:56N 43°33' E 010°18'0 0.0
2017-May-12 05:23N 43°33' E 010°18'0 0.0
2017-May-12 04:59N 43°33' E 010°18'0 0.0
2017-May-12 04:26N 43°33' E 010°18'0 0.0
2017-May-12 03:59N 43°33' E 010°18'0 0.0
2017-May-12 03:29N 43°33' E 010°18'0 0.0
2017-May-12 02:56N 43°33' E 010°18'0 0.0
2017-May-12 02:29N 43°33' E 010°18'0 0.0
2017-May-12 01:59N 43°33' E 010°18'0 0.1
2017-May-12 01:29N 43°33' E 010°18'0 0.1
2017-May-12 00:59N 43°33' E 010°18'0 0.0
2017-May-12 00:29N 43°33' E 010°18'0 0.0
2017-May-11 23:59N 43°33' E 010°18'0 0.0
2017-May-11 23:29N 43°33' E 010°18'0 0.0
2017-May-11 22:59N 43°33' E 010°18'0 0.0
2017-May-11 22:26N 43°33' E 010°18'0 0.0
2017-May-11 21:59N 43°33' E 010°18'0 0.0
2017-May-11 21:29N 43°33' E 010°18'0 0.0
2017-May-11 20:59N 43°33' E 010°18'0 0.0
2017-May-11 20:29N 43°33' E 010°18'0 0.0
2017-May-11 19:59N 43°33' E 010°18'0 0.0
2017-May-11 19:29N 43°33' E 010°18'0 0.0
2017-May-11 18:59N 43°33' E 010°18'0 0.0
2017-May-11 18:29N 43°33' E 010°18'0 0.0
2017-May-11 17:59N 43°33' E 010°18'0 0.0
2017-May-11 17:29N 43°33' E 010°18'0 0.0
2017-May-11 16:59N 43°33' E 010°18'0 0.0
2017-May-11 16:29N 43°33' E 010°18'0 0.0
2017-May-11 15:53N 43°33' E 010°18'0 0.0
2017-May-11 15:29N 43°33' E 010°18'0 0.0
2017-May-11 14:59N 43°33' E 010°18'0 0.0
2017-May-11 14:29N 43°33' E 010°18'0 0.0
2017-May-11 13:26N 43°33' E 010°18'0 0.0
2017-May-11 12:56N 43°33' E 010°18'0 0.0
2017-May-11 12:29N 43°33' E 010°18'0 0.0
2017-May-11 11:56N 43°33' E 010°18'0 0.0
2017-May-11 11:29N 43°33' E 010°18'0 0.0
2017-May-11 10:56N 43°33' E 010°18'0 0.0
2017-May-11 10:29N 43°33' E 010°18'0 0.0
2017-May-11 09:59N 43°33' E 010°18'0 0.0
2017-May-11 09:26N 43°33' E 010°18'0 0.0
2017-May-11 08:59N 43°33' E 010°18'0 0.0
2017-May-11 08:29N 43°33' E 010°18'0 0.0
2017-May-11 07:47N 43°33' E 010°18'0 0.0
2017-May-11 07:29N 43°33' E 010°18'0 0.0
2017-May-11 06:59N 43°33' E 010°18'0 0.0
2017-May-11 06:29N 43°33' E 010°18'0 0.0
2017-May-11 05:59N 43°33' E 010°18'0 0.0
2017-May-11 05:29N 43°33' E 010°18'0 0.0
2017-May-11 04:59N 43°33' E 010°18'0 0.0
2017-May-11 04:29N 43°33' E 010°18'0 0.0
2017-May-11 03:50N 43°33' E 010°18'0 0.0
2017-May-11 03:29N 43°33' E 010°18'0 0.0
2017-May-11 02:59N 43°33' E 010°18'0 0.0
2017-May-11 02:29N 43°33' E 010°18'0 0.0
2017-May-11 01:59N 43°33' E 010°18'0 0.0
2017-May-11 01:26N 43°33' E 010°18'0 0.0
2017-May-11 00:59N 43°33' E 010°18'0 0.0
2017-May-11 00:29N 43°33' E 010°18'0 0.0
2017-May-10 23:59N 43°33' E 010°18'0 0.0
2017-May-10 23:29N 43°33' E 010°18'0 0.0
2017-May-10 22:59N 43°33' E 010°18'0 0.0
2017-May-10 22:29N 43°33' E 010°18'0 0.0
2017-May-10 21:59N 43°33' E 010°18'0 0.0
2017-May-10 21:29N 43°33' E 010°18'0 0.0
2017-May-10 20:59N 43°33' E 010°18'0 0.0
2017-May-10 20:29N 43°33' E 010°18'  

Dump ship's entire track history